createdAt,value
2023-03-10T00:01:26.167Z,0.92
2023-03-10T00:03:55.660Z,0.90
2023-03-10T00:06:28.254Z,0.89
2023-03-10T00:08:55.997Z,0.86
2023-03-10T00:11:23.627Z,0.82
2023-03-10T00:13:51.027Z,0.81
2023-03-10T00:16:27.089Z,0.80
2023-03-10T00:18:54.782Z,0.80
2023-03-10T00:21:25.021Z,0.81
2023-03-10T00:23:52.813Z,0.80
2023-03-10T00:26:21.568Z,0.80
2023-03-10T00:28:49.620Z,0.77
2023-03-10T00:31:19.304Z,0.77
2023-03-10T00:33:46.742Z,0.77
2023-03-10T00:36:15.162Z,0.76
2023-03-10T00:38:43.957Z,0.74
2023-03-10T00:41:15.613Z,0.71
2023-03-10T00:43:43.613Z,0.70
2023-03-10T00:46:11.500Z,0.70
2023-03-10T00:48:39.703Z,0.71
2023-03-10T00:51:07.347Z,0.70
2023-03-10T00:53:36.671Z,0.68
2023-03-10T00:56:08.262Z,0.66
2023-03-10T00:58:36.117Z,0.66
2023-03-10T01:01:04.998Z,0.66
2023-03-10T01:03:36.098Z,0.65
2023-03-10T01:06:03.361Z,0.63
2023-03-10T01:08:30.529Z,0.61
2023-03-10T01:10:57.747Z,0.59
2023-03-10T01:13:25.004Z,0.58
2023-03-10T01:15:52.649Z,0.60
2023-03-10T01:18:21.420Z,0.58
2023-03-10T01:20:49.363Z,0.57
2023-03-10T01:23:22.684Z,0.55
2023-03-10T01:25:51.107Z,0.55
2023-03-10T01:28:20.738Z,0.55
2023-03-10T01:30:48.836Z,0.56
2023-03-10T01:33:17.990Z,0.56
2023-03-10T01:35:45.663Z,0.58
2023-03-10T01:38:13.475Z,0.57
2023-03-10T01:40:41.404Z,0.54
2023-03-10T01:43:20.840Z,0.53
2023-03-10T01:45:48.293Z,0.52
2023-03-10T01:48:19.986Z,0.51
2023-03-10T01:50:56.479Z,0.51
2023-03-10T01:53:25.978Z,0.51
2023-03-10T01:55:59.081Z,0.53
2023-03-10T01:58:33.122Z,0.53
2023-03-10T02:01:01.258Z,0.53
2023-03-10T02:03:34.526Z,0.52
2023-03-10T02:06:08.868Z,0.52
2023-03-10T02:08:44.565Z,0.52
2023-03-10T02:11:14.984Z,0.53
2023-03-10T02:13:43.539Z,0.56
2023-03-10T02:16:11.302Z,0.57
2023-03-10T02:18:41.409Z,0.57
2023-03-10T02:21:28.842Z,0.58
2023-03-10T02:24:11.638Z,0.58
2023-03-10T02:26:50.545Z,0.61
2023-03-10T02:29:48.741Z,0.62
2023-03-10T02:32:25.418Z,0.63
2023-03-10T02:34:53.139Z,0.62
2023-03-10T02:37:30.644Z,0.61
2023-03-10T02:39:58.798Z,0.62
2023-03-10T02:42:35.483Z,0.62
2023-03-10T02:45:04.288Z,0.62
2023-03-10T02:47:33.082Z,0.60
2023-03-10T02:50:00.368Z,0.62
2023-03-10T02:52:44.887Z,0.61
2023-03-10T02:55:17.102Z,0.62
2023-03-10T02:57:44.971Z,0.63
2023-03-10T03:00:13.289Z,0.62
2023-03-10T03:02:41.180Z,0.62
2023-03-10T03:05:08.996Z,0.64
2023-03-10T03:07:36.343Z,0.66
2023-03-10T03:10:04.868Z,0.64
2023-03-10T03:12:32.181Z,0.64
2023-03-10T03:14:59.604Z,0.63
2023-03-10T03:17:28.101Z,0.65
2023-03-10T03:19:55.592Z,0.66
2023-03-10T03:22:23.656Z,0.66
2023-03-10T03:24:51.033Z,0.65
2023-03-10T03:27:18.433Z,0.65
2023-03-10T03:29:46.033Z,0.65
2023-03-10T03:32:14.057Z,0.65
2023-03-10T03:34:41.484Z,0.65
2023-03-10T03:37:09.856Z,0.65
2023-03-10T03:39:41.982Z,0.66
2023-03-10T03:42:10.040Z,0.65
2023-03-10T03:44:44.630Z,0.64
2023-03-10T03:47:12.709Z,0.64
2023-03-10T03:49:40.283Z,0.63
2023-03-10T03:52:08.226Z,0.63
2023-03-10T03:54:35.951Z,0.64
2023-03-10T03:57:03.797Z,0.63
2023-03-10T03:59:31.728Z,0.63
2023-03-10T04:01:59.173Z,0.61
2023-03-10T04:04:26.884Z,0.62
2023-03-10T04:06:55.924Z,0.61
2023-03-10T04:09:23.925Z,0.62
2023-03-10T04:11:51.748Z,0.61
2023-03-10T04:14:20.857Z,0.61
2023-03-10T04:16:48.378Z,0.59
2023-03-10T04:19:16.239Z,0.60
2023-03-10T04:21:47.196Z,0.61
2023-03-10T04:24:14.834Z,0.60
2023-03-10T04:26:42.867Z,0.59
2023-03-10T04:29:10.661Z,0.60
2023-03-10T04:31:41.150Z,0.61
2023-03-10T04:34:10.485Z,0.62
2023-03-10T04:36:39.425Z,0.61
2023-03-10T04:39:07.117Z,0.62
2023-03-10T04:41:34.847Z,0.62
2023-03-10T04:44:03.494Z,0.61
2023-03-10T04:46:32.766Z,0.60
2023-03-10T04:49:01.275Z,0.62
2023-03-10T04:51:28.686Z,0.61
2023-03-10T04:53:57.855Z,0.63
2023-03-10T04:56:30.054Z,0.62
2023-03-10T04:58:57.948Z,0.62
2023-03-10T05:01:26.066Z,0.62
2023-03-10T05:04:04.317Z,0.63
2023-03-10T05:06:33.091Z,0.65
2023-03-10T05:09:20.617Z,0.66
2023-03-10T05:11:51.786Z,0.66
2023-03-10T05:14:19.180Z,0.64
2023-03-10T05:16:48.807Z,0.64
2023-03-10T05:19:17.256Z,0.64
2023-03-10T05:21:45.044Z,0.63
2023-03-10T05:24:12.514Z,0.62
2023-03-10T05:26:40.091Z,0.62
2023-03-10T05:29:07.734Z,0.60
2023-03-10T05:31:56.472Z,0.56
2023-03-10T05:34:30.826Z,0.58
2023-03-10T05:37:00.973Z,0.57
2023-03-10T05:39:29.174Z,0.55
2023-03-10T05:41:59.229Z,0.52
2023-03-10T05:44:29.308Z,0.48
2023-03-10T05:46:56.736Z,0.46
2023-03-10T05:49:24.732Z,0.44
2023-03-10T05:51:53.069Z,0.42
2023-03-10T05:54:23.706Z,0.38
2023-03-10T05:56:51.222Z,0.35
2023-03-10T05:59:22.084Z,0.34
2023-03-10T06:01:52.264Z,0.33
2023-03-10T06:04:19.897Z,0.33
2023-03-10T06:06:47.223Z,0.30
2023-03-10T06:09:14.433Z,0.28
2023-03-10T06:11:41.688Z,0.26
2023-03-10T06:14:09.769Z,0.23
2023-03-10T06:16:37.369Z,0.21
2023-03-10T06:19:04.626Z,0.17
2023-03-10T06:21:31.995Z,0.16
2023-03-10T06:24:00.606Z,0.15
2023-03-10T06:26:28.541Z,0.14
2023-03-10T06:28:55.947Z,0.14
2023-03-10T06:31:27.408Z,0.14
2023-03-10T06:33:58.690Z,0.12
2023-03-10T06:36:28.189Z,0.14
2023-03-10T06:38:56.835Z,0.14
2023-03-10T06:41:24.628Z,0.11
2023-03-10T06:43:51.939Z,0.11
2023-03-10T06:46:19.434Z,0.09
2023-03-10T06:48:46.883Z,0.07
2023-03-10T06:51:17.382Z,0.05
2023-03-10T06:53:44.972Z,0.02
2023-03-10T06:56:15.103Z,-0.02
2023-03-10T06:58:43.431Z,-0.08
2023-03-10T07:01:20.697Z,-0.11
2023-03-10T07:03:48.396Z,-0.13
2023-03-10T07:06:15.659Z,-0.16
2023-03-10T07:08:43.075Z,-0.17
2023-03-10T07:11:10.435Z,-0.20
2023-03-10T07:13:39.414Z,-0.20
2023-03-10T07:16:08.712Z,-0.21
2023-03-10T07:18:36.100Z,-0.25
2023-03-10T07:21:11.790Z,-0.26
2023-03-10T07:23:40.240Z,-0.28
2023-03-10T07:26:10.310Z,-0.29
2023-03-10T07:28:37.995Z,-0.31
2023-03-10T07:31:08.363Z,-0.32
2023-03-10T07:33:36.194Z,-0.29
2023-03-10T07:36:10.782Z,-0.31
2023-03-10T07:38:38.492Z,-0.32
2023-03-10T07:41:08.442Z,-0.31
2023-03-10T07:43:36.104Z,-0.31
2023-03-10T07:46:08.091Z,-0.30
2023-03-10T07:48:35.684Z,-0.30
2023-03-10T07:51:05.436Z,-0.28
2023-03-10T07:53:33.214Z,-0.28
2023-03-10T07:56:04.960Z,-0.29
2023-03-10T07:58:35.512Z,-0.30
2023-03-10T08:01:04.532Z,-0.29
2023-03-10T08:03:34.164Z,-0.26
2023-03-10T08:06:02.617Z,-0.27
2023-03-10T08:08:30.205Z,-0.24
2023-03-10T08:11:16.313Z,-0.24
2023-03-10T08:13:46.265Z,-0.22
2023-03-10T08:16:19.087Z,-0.19
2023-03-10T08:18:46.497Z,-0.19
2023-03-10T08:21:13.780Z,-0.18
2023-03-10T08:23:41.245Z,-0.16
2023-03-10T08:26:12.546Z,-0.14
2023-03-10T08:28:41.368Z,-0.12
2023-03-10T08:31:14.571Z,-0.12
2023-03-10T08:33:43.389Z,-0.12
2023-03-10T08:36:20.094Z,-0.11
2023-03-10T08:38:48.140Z,-0.09
2023-03-10T08:41:24.605Z,-0.11
2023-03-10T08:43:54.562Z,-0.09
2023-03-10T08:46:24.780Z,-0.05
2023-03-10T08:48:52.148Z,-0.03
2023-03-10T08:51:21.618Z,-0.03
2023-03-10T08:53:50.350Z,-0.03
2023-03-10T08:56:20.717Z,0.03
2023-03-10T08:58:48.478Z,0.05
2023-03-10T09:01:17.399Z,0.06
2023-03-10T09:03:45.711Z,0.05
2023-03-10T09:06:14.107Z,0.08
2023-03-10T09:08:41.746Z,0.11
2023-03-10T09:11:14.481Z,0.14
2023-03-10T09:13:41.783Z,0.19
2023-03-10T09:16:13.734Z,0.21
2023-03-10T09:18:41.653Z,0.22
2023-03-10T09:21:11.040Z,0.22
2023-03-10T09:23:41.358Z,0.24
2023-03-10T09:26:08.891Z,0.28
2023-03-10T09:28:36.739Z,0.25
2023-03-10T09:31:05.644Z,0.26
2023-03-10T09:33:33.370Z,0.24
2023-03-10T09:36:07.388Z,0.23
2023-03-10T09:38:36.262Z,0.24
2023-03-10T09:41:38.128Z,0.27
2023-03-10T09:44:26.462Z,0.22
2023-03-10T09:47:25.978Z,0.22
2023-03-10T09:50:08.233Z,0.22
2023-03-10T09:52:47.587Z,0.21
2023-03-10T09:55:17.717Z,0.21
2023-03-10T09:57:48.249Z,0.24
2023-03-10T10:00:22.641Z,0.26
2023-03-10T10:02:56.761Z,0.28
2023-03-10T10:05:27.117Z,0.32
2023-03-10T10:07:57.503Z,0.37
2023-03-10T10:10:31.395Z,0.42
2023-03-10T10:13:05.718Z,0.46
2023-03-10T10:15:38.371Z,0.45
2023-03-10T10:18:17.829Z,0.44
2023-03-10T10:20:51.394Z,0.39
2023-03-10T10:23:38.012Z,0.38
2023-03-10T10:26:23.432Z,0.37
2023-03-10T10:29:01.595Z,0.39
2023-03-10T10:31:32.182Z,0.40
2023-03-10T10:34:04.111Z,0.42
2023-03-10T10:36:48.308Z,0.50
2023-03-10T10:39:33.778Z,0.58
2023-03-10T10:42:21.090Z,0.65
2023-03-10T10:44:55.981Z,0.64
2023-03-10T10:47:36.983Z,0.63
2023-03-10T10:50:24.302Z,0.58
2023-03-10T10:53:10.946Z,0.53
2023-03-10T10:55:40.706Z,0.54
2023-03-10T10:58:44.702Z,0.57
2023-03-10T11:01:14.996Z,0.58
2023-03-10T11:03:45.067Z,0.56
2023-03-10T11:06:24.092Z,0.53
2023-03-10T11:08:52.252Z,0.56
2023-03-10T11:11:49.693Z,0.51
2023-03-10T11:14:26.613Z,0.50
2023-03-10T11:17:25.033Z,0.53
2023-03-10T11:20:23.670Z,0.50
2023-03-10T11:23:09.444Z,0.53
2023-03-10T11:26:17.614Z,0.61
2023-03-10T11:28:47.777Z,0.64
2023-03-10T11:31:38.841Z,0.64
2023-03-10T11:34:30.334Z,0.65
2023-03-10T11:37:32.339Z,0.65
2023-03-10T11:40:19.837Z,0.69
2023-03-10T11:42:59.637Z,0.70
2023-03-10T11:45:39.654Z,0.71
2023-03-10T11:48:35.279Z,0.75
2023-03-10T11:51:05.002Z,0.70
2023-03-10T11:53:44.469Z,0.72
2023-03-10T11:56:15.062Z,0.75
2023-03-10T11:59:13.637Z,0.76
2023-03-10T12:01:53.281Z,0.76
2023-03-10T12:04:35.438Z,0.75
2023-03-10T12:07:09.129Z,0.80
2023-03-10T12:09:49.358Z,0.87
2023-03-10T12:12:22.835Z,0.84
2023-03-10T12:14:51.762Z,0.83
2023-03-10T12:17:19.547Z,0.82
2023-03-10T12:20:12.023Z,0.82
2023-03-10T12:22:50.939Z,0.83
2023-03-10T12:25:30.784Z,0.85
2023-03-10T12:28:26.225Z,0.83
2023-03-10T12:30:57.765Z,0.83
2023-03-10T12:33:31.021Z,0.84
2023-03-10T12:36:27.266Z,0.85
2023-03-10T12:39:29.151Z,0.79
2023-03-10T12:42:01.453Z,0.74
2023-03-10T12:44:50.075Z,0.74
2023-03-10T12:47:40.027Z,0.73
2023-03-10T12:50:20.291Z,0.70
2023-03-10T12:52:58.239Z,0.68
2023-03-10T12:55:28.828Z,0.67
2023-03-10T12:58:10.580Z,0.62
2023-03-10T13:00:58.454Z,0.61
2023-03-10T13:03:32.031Z,0.61
2023-03-10T13:06:01.645Z,0.62
2023-03-10T13:08:39.970Z,0.61
2023-03-10T13:11:30.374Z,0.58
2023-03-10T13:14:02.134Z,0.58
2023-03-10T13:16:30.228Z,0.58
2023-03-10T13:19:00.471Z,0.57
2023-03-10T13:21:32.390Z,0.50
2023-03-10T13:24:01.748Z,0.49
2023-03-10T13:26:30.363Z,0.50
2023-03-10T13:29:00.643Z,0.49
2023-03-10T13:31:34.735Z,0.49
2023-03-10T13:34:14.309Z,0.49
2023-03-10T13:36:41.828Z,0.49
2023-03-10T13:39:18.716Z,0.50
2023-03-10T13:41:49.286Z,0.51
2023-03-10T13:44:34.183Z,0.52
2023-03-10T13:47:04.589Z,0.53
2023-03-10T13:49:35.214Z,0.52
2023-03-10T13:52:12.781Z,0.53
2023-03-10T13:54:42.817Z,0.57
2023-03-10T13:57:29.893Z,0.60
2023-03-10T13:59:59.419Z,0.62
2023-03-10T14:02:36.949Z,0.61
2023-03-10T14:05:06.924Z,0.62
2023-03-10T14:07:37.210Z,0.63
2023-03-10T14:10:04.474Z,0.64
2023-03-10T14:12:43.493Z,0.64
2023-03-10T14:15:14.969Z,0.63
2023-03-10T14:17:46.357Z,0.64
2023-03-10T14:20:32.293Z,0.66
2023-03-10T14:23:00.774Z,0.67
2023-03-10T14:25:28.081Z,0.69
2023-03-10T14:27:59.294Z,0.68
2023-03-10T14:30:31.788Z,0.72
2023-03-10T14:33:01.096Z,0.76
2023-03-10T14:35:30.903Z,0.80
2023-03-10T14:37:58.132Z,0.80
2023-03-10T14:40:25.918Z,0.80
2023-03-10T14:42:57.728Z,0.81
2023-03-10T14:45:34.412Z,0.82
2023-03-10T14:48:05.147Z,0.81
2023-03-10T14:50:33.341Z,0.82
2023-03-10T14:53:00.729Z,0.81
2023-03-10T14:55:29.080Z,0.85
2023-03-10T14:58:00.313Z,0.86
2023-03-10T15:00:27.898Z,0.87
2023-03-10T15:02:55.439Z,0.91
2023-03-10T15:05:41.410Z,0.94
2023-03-10T15:08:14.932Z,1.00
2023-03-10T15:10:44.266Z,1.03
2023-03-10T15:13:13.818Z,1.04
2023-03-10T15:15:43.830Z,1.01
2023-03-10T15:18:14.432Z,0.99
2023-03-10T15:20:41.969Z,0.96
2023-03-10T15:23:10.059Z,0.95
2023-03-10T15:25:37.368Z,0.95
2023-03-10T15:28:04.784Z,0.94
2023-03-10T15:30:38.739Z,0.93
2023-03-10T15:33:06.110Z,0.84
2023-03-10T15:35:33.901Z,0.76
2023-03-10T15:38:01.200Z,0.73
2023-03-10T15:40:31.665Z,0.69
2023-03-10T15:43:00.390Z,0.65
2023-03-10T15:45:30.468Z,0.65
2023-03-10T15:47:58.329Z,0.65
2023-03-10T15:50:26.307Z,0.66
2023-03-10T15:52:59.036Z,0.65
2023-03-10T15:55:28.285Z,0.65
2023-03-10T15:57:57.808Z,0.63
2023-03-10T16:00:26.870Z,0.60
2023-03-10T16:02:55.119Z,0.61
2023-03-10T16:05:22.857Z,0.61
2023-03-10T16:07:50.984Z,0.62
2023-03-10T16:10:20.864Z,0.61
2023-03-10T16:12:48.272Z,0.62
2023-03-10T16:15:18.232Z,0.64
2023-03-10T16:17:46.869Z,0.63
2023-03-10T16:20:14.731Z,0.64
2023-03-10T16:22:43.074Z,0.60
2023-03-10T16:25:15.417Z,0.56
2023-03-10T16:27:44.679Z,0.51
2023-03-10T16:30:17.143Z,0.48
2023-03-10T16:32:48.909Z,0.46
2023-03-10T16:35:17.928Z,0.47
2023-03-10T16:37:45.280Z,0.49
2023-03-10T16:40:12.971Z,0.50
2023-03-10T16:42:43.394Z,0.52
2023-03-10T16:45:11.255Z,0.56
2023-03-10T16:47:38.780Z,0.58
2023-03-10T16:50:07.888Z,0.61
2023-03-10T16:52:42.562Z,0.62
2023-03-10T16:55:18.508Z,0.58
2023-03-10T16:57:46.379Z,0.55
2023-03-10T17:00:15.146Z,0.53
2023-03-10T17:02:42.465Z,0.54
2023-03-10T17:05:10.378Z,0.53
2023-03-10T17:07:46.449Z,0.42
2023-03-10T17:10:21.137Z,0.29
2023-03-10T17:12:48.421Z,0.16
2023-03-10T17:15:15.704Z,0.09
2023-03-10T17:17:43.260Z,0.03
2023-03-10T17:20:11.113Z,0.01
2023-03-10T17:22:39.080Z,-0.04
2023-03-10T17:25:07.916Z,-0.08
2023-03-10T17:27:35.303Z,-0.09
2023-03-10T17:30:03.014Z,-0.08
2023-03-10T17:32:30.833Z,-0.09
2023-03-10T17:34:58.236Z,-0.14
2023-03-10T17:37:25.446Z,-0.19
2023-03-10T17:39:55.047Z,-0.22
2023-03-10T17:42:23.774Z,-0.21
2023-03-10T17:44:51.277Z,-0.21
2023-03-10T17:47:18.831Z,-0.19
2023-03-10T17:49:46.339Z,-0.18
2023-03-10T17:52:13.573Z,-0.14
2023-03-10T17:54:41.092Z,-0.07
2023-03-10T17:57:08.485Z,-0.02
2023-03-10T17:59:39.088Z,0.01
2023-03-10T18:02:07.027Z,0.04
2023-03-10T18:04:37.165Z,0.04
2023-03-10T18:07:04.640Z,0.04
2023-03-10T18:09:32.459Z,0.05
2023-03-10T18:11:59.835Z,0.04
2023-03-10T18:14:28.506Z,0.05
2023-03-10T18:16:55.913Z,0.08
2023-03-10T18:19:23.123Z,0.08
2023-03-10T18:21:52.571Z,0.08
2023-03-10T18:24:19.965Z,0.08
2023-03-10T18:26:47.751Z,0.06
2023-03-10T18:29:15.248Z,0.05
2023-03-10T18:31:44.309Z,0.04
2023-03-10T18:34:13.230Z,0.01
2023-03-10T18:36:40.536Z,-0.02
2023-03-10T18:39:07.936Z,-0.03
2023-03-10T18:41:35.903Z,-0.06
2023-03-10T18:44:04.988Z,-0.09
2023-03-10T18:46:35.381Z,-0.12
2023-03-10T18:49:02.684Z,-0.15
2023-03-10T18:51:29.938Z,-0.17
2023-03-10T18:53:57.239Z,-0.18
2023-03-10T18:56:30.764Z,-0.20
2023-03-10T18:58:58.788Z,-0.22
2023-03-10T19:01:27.000Z,-0.22
2023-03-10T19:03:58.326Z,-0.22
2023-03-10T19:06:33.264Z,-0.21
2023-03-10T19:09:01.545Z,-0.20
2023-03-10T19:11:36.857Z,-0.20
2023-03-10T19:14:06.477Z,-0.20
2023-03-10T19:16:35.562Z,-0.19
2023-03-10T19:19:04.058Z,-0.19
2023-03-10T19:21:34.006Z,-0.18
2023-03-10T19:24:01.382Z,-0.18
2023-03-10T19:26:28.665Z,-0.18
2023-03-10T19:28:56.336Z,-0.18
2023-03-10T19:31:23.923Z,-0.17
2023-03-10T19:33:51.325Z,-0.16
2023-03-10T19:36:18.749Z,-0.17
2023-03-10T19:38:46.141Z,-0.16
2023-03-10T19:41:16.893Z,-0.19
2023-03-10T19:43:46.838Z,-0.19
2023-03-10T19:46:15.880Z,-0.18
2023-03-10T19:48:44.421Z,-0.20
2023-03-10T19:51:23.101Z,-0.22
2023-03-10T19:53:51.957Z,-0.22
2023-03-10T19:56:20.461Z,-0.25
2023-03-10T19:58:49.378Z,-0.22
2023-03-10T20:01:19.943Z,-0.24
2023-03-10T20:03:47.385Z,-0.24
2023-03-10T20:06:14.600Z,-0.22
2023-03-10T20:08:43.237Z,-0.20
2023-03-10T20:11:14.547Z,-0.20
2023-03-10T20:13:43.346Z,-0.21
2023-03-10T20:16:13.145Z,-0.23
2023-03-10T20:18:41.203Z,-0.26
2023-03-10T20:21:08.631Z,-0.31
2023-03-10T20:23:36.045Z,-0.37
2023-03-10T20:26:10.169Z,-0.40
2023-03-10T20:28:39.794Z,-0.41
2023-03-10T20:31:08.067Z,-0.38
2023-03-10T20:33:36.615Z,-0.36
2023-03-10T20:36:04.808Z,-0.32
2023-03-10T20:38:32.489Z,-0.28
2023-03-10T20:40:59.943Z,-0.25
2023-03-10T20:43:27.234Z,-0.21
2023-03-10T20:46:00.554Z,-0.17
2023-03-10T20:48:28.387Z,-0.16
2023-03-10T20:50:56.634Z,-0.16
2023-03-10T20:53:24.325Z,-0.14
2023-03-10T20:55:51.636Z,-0.14
2023-03-10T20:58:18.928Z,-0.16
2023-03-10T21:00:47.360Z,-0.20
2023-03-10T21:03:15.254Z,-0.22
2023-03-10T21:05:42.943Z,-0.22
2023-03-10T21:08:10.978Z,-0.23
2023-03-10T21:10:39.762Z,-0.21
2023-03-10T21:13:07.299Z,-0.18
2023-03-10T21:15:34.825Z,-0.16
2023-03-10T21:18:02.073Z,-0.16
2023-03-10T21:20:29.583Z,-0.16
2023-03-10T21:22:56.903Z,-0.17
2023-03-10T21:25:27.047Z,-0.16
2023-03-10T21:27:58.809Z,-0.16
2023-03-10T21:30:29.752Z,-0.15
2023-03-10T21:32:57.848Z,-0.13
2023-03-10T21:35:28.260Z,-0.12
2023-03-10T21:37:59.688Z,-0.13
2023-03-10T21:40:28.125Z,-0.15
2023-03-10T21:42:55.908Z,-0.18
2023-03-10T21:45:24.335Z,-0.20
2023-03-10T21:47:52.010Z,-0.19
2023-03-10T21:50:20.276Z,-0.20
2023-03-10T21:52:50.939Z,-0.18
2023-03-10T21:55:20.370Z,-0.16
2023-03-10T21:57:48.801Z,-0.13
2023-03-10T22:00:19.146Z,-0.09
2023-03-10T22:02:49.673Z,-0.04
2023-03-10T22:05:18.353Z,-0.01
2023-03-10T22:07:45.818Z,0.02
2023-03-10T22:10:14.235Z,0.05
2023-03-10T22:12:41.936Z,0.07
2023-03-10T22:15:15.526Z,0.08
2023-03-10T22:17:42.856Z,0.10
2023-03-10T22:20:14.576Z,0.10
2023-03-10T22:22:41.830Z,0.13
2023-03-10T22:25:09.747Z,0.15
2023-03-10T22:27:37.138Z,0.15
2023-03-10T22:30:05.150Z,0.16
2023-03-10T22:32:33.250Z,0.15
2023-03-10T22:35:00.732Z,0.14
2023-03-10T22:37:28.039Z,0.13
2023-03-10T22:39:57.023Z,0.11
2023-03-10T22:42:24.296Z,0.10
2023-03-10T22:44:51.764Z,0.07
2023-03-10T22:47:19.134Z,0.06
2023-03-10T22:49:46.536Z,0.04
2023-03-10T22:52:13.992Z,0.05
2023-03-10T22:54:41.380Z,0.05
2023-03-10T22:57:08.913Z,0.04
2023-03-10T22:59:36.331Z,0.05
2023-03-10T23:02:03.679Z,0.05
2023-03-10T23:04:31.197Z,0.06
2023-03-10T23:06:58.507Z,0.08
2023-03-10T23:09:25.812Z,0.07
2023-03-10T23:11:56.361Z,0.05
2023-03-10T23:14:23.764Z,0.04
2023-03-10T23:16:51.037Z,0.05
2023-03-10T23:19:18.297Z,0.04
2023-03-10T23:21:46.273Z,0.05
2023-03-10T23:24:13.728Z,0.05
2023-03-10T23:26:41.296Z,0.06
2023-03-10T23:29:08.498Z,0.10
2023-03-10T23:31:36.143Z,0.10
2023-03-10T23:34:06.595Z,0.07
2023-03-10T23:36:33.962Z,0.05
2023-03-10T23:39:01.269Z,0.04
2023-03-10T23:41:28.568Z,0.06
2023-03-10T23:43:56.765Z,0.07
2023-03-10T23:46:24.172Z,0.08
2023-03-10T23:48:52.371Z,0.09
2023-03-10T23:51:19.695Z,0.12
2023-03-10T23:53:46.954Z,0.14
2023-03-10T23:56:15.391Z,0.15
2023-03-10T23:58:43.144Z,0.17
